Terminal Aerodrome Forecast
Issued by NWS Austin/San Antonio, TX

Home | Current Version | Previous Version | Text Only | Print | Product List | Glossary On
Versions: 1 2 3 4 5 6 7 8 9 10 11 12 13 14 15 16 17 18 19 20 21 22 23 24 25 26 27 28 29
000
FTUS44 KEWX 262342
TAFSAT
TAF
KSAT 262342Z 2700/2806 15011KT P6SM SCT040 BKN150
     FM270400 13009KT P6SM OVC015
     FM270700 13008KT 5SM BR OVC006
     FM271500 16010KT P6SM BKN015
     FM271700 16013KT P6SM BKN040=

USA.gov is the U.S. government's official web portal to all federal, state and local government web resources and services.